createdAt,value
2022-12-09T00:00:38.340Z,63.26
2022-12-09T00:01:38.283Z,54.43
2022-12-09T00:02:38.743Z,47.88
2022-12-09T00:03:38.406Z,51.33
2022-12-09T00:04:38.481Z,50.23
2022-12-09T00:05:38.273Z,58.01
2022-12-09T00:06:38.368Z,62.59
2022-12-09T00:07:38.399Z,52.35
2022-12-09T00:08:38.514Z,45.39
2022-12-09T00:09:38.252Z,49.78
2022-12-09T00:10:38.270Z,53.30
2022-12-09T00:11:38.418Z,52.49
2022-12-09T00:12:38.418Z,55.81
2022-12-09T00:13:38.456Z,67.43
2022-12-09T00:14:38.164Z,54.02
2022-12-09T00:15:38.199Z,50.48
2022-12-09T00:16:38.262Z,48.25
2022-12-09T00:17:38.351Z,50.28
2022-12-09T00:18:38.262Z,52.31
2022-12-09T00:19:38.233Z,57.51
2022-12-09T00:20:38.192Z,52.73
2022-12-09T00:21:38.130Z,51.57
2022-12-09T00:22:38.320Z,59.28
2022-12-09T00:23:38.217Z,56.59
2022-12-09T00:24:38.228Z,46.72
2022-12-09T00:25:38.049Z,50.69
2022-12-09T00:26:38.068Z,45.99
2022-12-09T00:27:38.266Z,46.94
2022-12-09T00:28:38.148Z,64.69
2022-12-09T00:29:38.065Z,52.41
2022-12-09T00:30:38.244Z,64.79
2022-12-09T00:31:38.392Z,47.95
2022-12-09T00:32:38.074Z,49.00
2022-12-09T00:33:37.969Z,54.95
2022-12-09T00:34:38.159Z,50.27
2022-12-09T00:35:37.957Z,47.87
2022-12-09T00:36:37.932Z,57.76
2022-12-09T00:37:38.106Z,56.72
2022-12-09T00:38:38.161Z,50.25
2022-12-09T00:39:37.926Z,45.82
2022-12-09T00:40:38.024Z,46.21
2022-12-09T00:41:37.950Z,52.85
2022-12-09T00:42:37.880Z,51.50
2022-12-09T00:43:38.070Z,50.65
2022-12-09T00:44:37.881Z,51.76
2022-12-09T00:45:38.033Z,48.46
2022-12-09T00:46:37.929Z,46.63
2022-12-09T00:47:38.137Z,46.17
2022-12-09T00:48:38.051Z,46.04
2022-12-09T00:49:37.842Z,46.18
2022-12-09T00:50:38.021Z,47.21
2022-12-09T00:51:37.815Z,48.41
2022-12-09T00:52:37.817Z,63.99
2022-12-09T00:53:37.783Z,46.60
2022-12-09T00:54:37.897Z,51.19
2022-12-09T00:55:38.009Z,65.47
2022-12-09T00:56:37.787Z,54.65
2022-12-09T00:57:37.740Z,63.99
2022-12-09T00:58:37.765Z,47.61
2022-12-09T00:59:37.867Z,49.96
2022-12-09T01:00:37.726Z,48.38
2022-12-09T01:01:37.960Z,50.37
2022-12-09T01:02:38.100Z,48.00
2022-12-09T01:03:37.761Z,46.23
2022-12-09T01:04:37.992Z,45.93
2022-12-09T01:05:37.909Z,47.95
2022-12-09T01:06:37.858Z,46.72
2022-12-09T01:07:37.738Z,49.73
2022-12-09T01:08:39.401Z,51.39
2022-12-09T01:09:38.764Z,53.09
2022-12-09T01:10:37.869Z,51.68
2022-12-09T01:11:37.690Z,45.55
2022-12-09T01:12:37.621Z,51.43
2022-12-09T01:13:37.857Z,56.96
2022-12-09T01:14:37.632Z,52.06
2022-12-09T01:15:37.679Z,51.32
2022-12-09T01:16:37.692Z,45.14
2022-12-09T01:17:37.631Z,51.55
2022-12-09T01:18:37.533Z,48.17
2022-12-09T01:19:37.792Z,48.09
2022-12-09T01:20:37.522Z,60.92
2022-12-09T01:21:37.507Z,49.27
2022-12-09T01:22:37.517Z,47.63
2022-12-09T01:23:37.703Z,51.28
2022-12-09T01:24:37.494Z,57.57
2022-12-09T01:25:37.576Z,54.27
2022-12-09T01:26:37.647Z,50.42
2022-12-09T01:27:37.524Z,47.59
2022-12-09T01:28:37.707Z,50.92
2022-12-09T01:29:37.426Z,49.05
2022-12-09T01:30:37.415Z,45.70
2022-12-09T01:31:37.507Z,47.05
2022-12-09T01:32:37.420Z,55.03
2022-12-09T01:33:37.381Z,52.03
2022-12-09T01:34:37.676Z,51.89
2022-12-09T01:35:37.536Z,46.85
2022-12-09T01:36:37.535Z,47.62
2022-12-09T01:37:37.410Z,52.98
2022-12-09T01:38:37.332Z,64.18
2022-12-09T01:39:37.338Z,45.95
2022-12-09T01:40:37.478Z,47.75
2022-12-09T01:41:37.319Z,45.71
2022-12-09T01:42:37.459Z,55.66
2022-12-09T01:43:37.277Z,58.96
2022-12-09T01:44:37.544Z,47.21
2022-12-09T01:45:37.499Z,49.72
2022-12-09T01:46:37.530Z,47.77
2022-12-09T01:47:37.489Z,50.56
2022-12-09T01:48:37.578Z,46.28
2022-12-09T01:49:37.385Z,47.35
2022-12-09T01:50:37.249Z,45.25
2022-12-09T01:51:37.364Z,52.59
2022-12-09T01:52:37.221Z,49.52
2022-12-09T01:53:37.440Z,45.32
2022-12-09T01:54:37.175Z,44.86
2022-12-09T01:55:37.195Z,45.08
2022-12-09T01:56:37.255Z,51.65
2022-12-09T01:57:37.324Z,53.21
2022-12-09T01:58:37.330Z,50.46
2022-12-09T01:59:37.256Z,49.51
2022-12-09T02:00:37.115Z,49.53
2022-12-09T02:01:37.501Z,55.88
2022-12-09T02:02:37.283Z,53.00
2022-12-09T02:03:37.256Z,47.66
2022-12-09T02:04:37.231Z,46.60
2022-12-09T02:05:37.084Z,45.18
2022-12-09T02:06:37.071Z,49.81
2022-12-09T02:07:37.101Z,53.33
2022-12-09T02:08:37.238Z,53.42
2022-12-09T02:09:37.026Z,46.06
2022-12-09T02:10:37.094Z,45.11
2022-12-09T02:11:37.042Z,47.26
2022-12-09T02:12:37.032Z,52.66
2022-12-09T02:13:37.045Z,49.46
2022-12-09T02:14:38.227Z,53.56
2022-12-09T02:15:36.999Z,48.74
2022-12-09T02:16:37.276Z,50.03
2022-12-09T02:17:36.994Z,61.41
2022-12-09T02:18:37.298Z,56.47
2022-12-09T02:19:36.949Z,51.43
2022-12-09T02:20:36.936Z,57.42
2022-12-09T02:21:37.027Z,62.49
2022-12-09T02:22:36.959Z,53.30
2022-12-09T02:23:36.875Z,49.47
2022-12-09T02:24:36.906Z,45.85
2022-12-09T02:25:37.028Z,53.78
2022-12-09T02:26:36.873Z,51.51
2022-12-09T02:27:37.129Z,63.76
2022-12-09T02:28:37.194Z,66.46
2022-12-09T02:29:36.828Z,53.44
2022-12-09T02:30:36.822Z,54.65
2022-12-09T02:31:37.236Z,71.81
2022-12-09T02:32:37.087Z,54.60
2022-12-09T02:33:37.210Z,51.69
2022-12-09T02:34:36.829Z,48.28
2022-12-09T02:35:36.773Z,52.34
2022-12-09T02:36:37.794Z,50.89
2022-12-09T02:37:36.784Z,50.50
2022-12-09T02:38:36.973Z,59.49
2022-12-09T02:39:36.747Z,54.35
2022-12-09T02:40:37.952Z,56.81
2022-12-09T02:41:36.774Z,53.53
2022-12-09T02:42:36.730Z,54.81
2022-12-09T02:43:36.775Z,59.30
2022-12-09T02:44:36.686Z,53.10
2022-12-09T02:45:37.734Z,61.87
2022-12-09T02:46:36.971Z,54.09
2022-12-09T02:47:36.876Z,50.17
2022-12-09T02:48:37.079Z,46.48
2022-12-09T02:49:36.806Z,45.37
2022-12-09T02:50:36.813Z,46.61
2022-12-09T02:51:36.654Z,48.77
2022-12-09T02:52:36.936Z,47.35
2022-12-09T02:53:36.590Z,47.08
2022-12-09T02:54:36.587Z,52.75
2022-12-09T02:55:36.845Z,53.32
2022-12-09T02:56:36.590Z,49.47
2022-12-09T02:57:36.615Z,56.28
2022-12-09T02:58:36.765Z,55.45
2022-12-09T02:59:36.607Z,62.38
2022-12-09T03:00:36.733Z,52.68
2022-12-09T03:01:36.707Z,54.74
2022-12-09T03:02:36.726Z,50.07
2022-12-09T03:03:36.967Z,58.54
2022-12-09T03:04:36.577Z,47.92
2022-12-09T03:05:36.777Z,56.50
2022-12-09T03:06:36.756Z,63.15
2022-12-09T03:08:08.438Z,46.78
2022-12-09T03:08:36.856Z,50.00
2022-12-09T03:09:36.615Z,53.33
2022-12-09T03:10:36.813Z,45.83
2022-12-09T03:11:36.541Z,55.34
2022-12-09T03:12:36.626Z,55.08
2022-12-09T03:13:36.624Z,49.84
2022-12-09T03:14:36.657Z,51.78
2022-12-09T03:15:37.389Z,51.51
2022-12-09T03:16:36.736Z,56.30
2022-12-09T03:17:36.391Z,56.97
2022-12-09T03:18:36.617Z,65.85
2022-12-09T03:19:36.357Z,50.92
2022-12-09T03:20:36.409Z,47.35
2022-12-09T03:21:36.432Z,51.53
2022-12-09T03:22:36.421Z,55.37
2022-12-09T03:23:36.355Z,50.88
2022-12-09T03:24:36.387Z,52.10
2022-12-09T03:25:36.624Z,52.06
2022-12-09T03:26:36.624Z,49.00
2022-12-09T03:27:36.571Z,52.75
2022-12-09T03:28:36.278Z,46.32
2022-12-09T03:29:36.266Z,49.89
2022-12-09T03:30:36.267Z,48.18
2022-12-09T03:31:36.391Z,56.78
2022-12-09T03:32:36.343Z,53.71
2022-12-09T03:33:36.474Z,52.52
2022-12-09T03:34:36.295Z,57.07
2022-12-09T03:35:36.289Z,58.83
2022-12-09T03:36:36.187Z,53.17
2022-12-09T03:37:36.397Z,55.65
2022-12-09T03:38:36.168Z,56.45
2022-12-09T03:39:36.393Z,59.58
2022-12-09T03:40:36.451Z,64.89
2022-12-09T03:41:36.208Z,55.14
2022-12-09T03:42:36.237Z,49.34
2022-12-09T03:43:36.129Z,54.31
2022-12-09T03:44:36.306Z,58.10
2022-12-09T03:45:36.298Z,53.08
2022-12-09T03:46:36.317Z,52.71
2022-12-09T03:47:36.392Z,61.23
2022-12-09T03:48:36.368Z,55.41
2022-12-09T03:49:36.072Z,54.01
2022-12-09T03:50:36.382Z,54.72
2022-12-09T03:51:36.368Z,59.34
2022-12-09T03:52:36.120Z,60.49
2022-12-09T03:53:36.184Z,56.07
2022-12-09T03:54:36.122Z,65.51
2022-12-09T03:55:36.195Z,56.93
2022-12-09T03:56:36.311Z,57.23
2022-12-09T03:57:36.322Z,60.12
2022-12-09T03:58:35.989Z,57.75
2022-12-09T03:59:36.015Z,54.46
2022-12-09T04:00:36.099Z,64.42
2022-12-09T04:01:36.294Z,58.12
2022-12-09T04:02:36.053Z,53.42
2022-12-09T04:03:36.129Z,57.12
2022-12-09T04:04:36.033Z,63.42
2022-12-09T04:05:35.952Z,56.67
2022-12-09T04:06:35.872Z,55.52
2022-12-09T04:07:35.929Z,57.55
2022-12-09T04:08:35.916Z,58.13
2022-12-09T04:09:36.056Z,57.26
2022-12-09T04:10:35.872Z,54.49
2022-12-09T04:11:36.185Z,64.79
2022-12-09T04:12:35.956Z,56.68
2022-12-09T04:13:35.846Z,55.11
2022-12-09T04:14:35.892Z,55.50
2022-12-09T04:15:36.062Z,56.92
2022-12-09T04:16:36.099Z,56.42
2022-12-09T04:17:35.948Z,59.82
2022-12-09T04:18:35.906Z,56.37
2022-12-09T04:19:35.943Z,50.63
2022-12-09T04:20:35.790Z,57.83
2022-12-09T04:21:35.901Z,62.44
2022-12-09T04:22:35.800Z,58.64
2022-12-09T04:23:40.991Z,54.01
2022-12-09T04:24:36.947Z,54.30
2022-12-09T04:25:36.089Z,56.37
2022-12-09T04:26:35.716Z,54.42
2022-12-09T04:27:35.756Z,57.41
2022-12-09T04:28:36.736Z,56.12
2022-12-09T04:29:35.776Z,57.33
2022-12-09T04:30:36.037Z,58.49
2022-12-09T04:31:35.915Z,58.21
2022-12-09T04:32:35.803Z,58.61
2022-12-09T04:33:35.748Z,55.38
2022-12-09T04:34:35.635Z,57.77
2022-12-09T04:35:35.614Z,56.70
2022-12-09T04:36:35.660Z,66.64
2022-12-09T04:37:35.629Z,60.57
2022-12-09T04:38:35.629Z,58.63
2022-12-09T04:39:36.054Z,58.90
2022-12-09T04:40:35.598Z,59.98
2022-12-09T04:41:35.544Z,57.96
2022-12-09T04:42:35.994Z,58.98
2022-12-09T04:43:35.727Z,60.04
2022-12-09T04:44:35.825Z,55.47
2022-12-09T04:45:35.698Z,54.28
2022-12-09T04:46:35.886Z,57.15
2022-12-09T04:47:35.959Z,53.01
2022-12-09T04:48:35.615Z,57.97
2022-12-09T04:49:35.660Z,58.94
2022-12-09T04:50:35.815Z,56.91
2022-12-09T04:51:39.435Z,58.97
2022-12-09T04:52:36.764Z,56.64
2022-12-09T04:53:35.682Z,57.68
2022-12-09T04:54:35.653Z,58.72
2022-12-09T04:55:35.463Z,55.20
2022-12-09T04:56:35.410Z,55.42
2022-12-09T04:57:35.423Z,55.38
2022-12-09T04:58:35.535Z,57.63
2022-12-09T04:59:35.542Z,59.14
2022-12-09T05:00:35.548Z,56.59
2022-12-09T05:01:35.569Z,65.56
2022-12-09T05:02:35.659Z,60.25
2022-12-09T05:03:35.443Z,57.75
2022-12-09T05:04:35.871Z,56.57
2022-12-09T05:05:35.604Z,56.65
2022-12-09T05:06:35.429Z,58.24
2022-12-09T05:07:35.728Z,59.74
2022-12-09T05:08:35.845Z,58.96
2022-12-09T05:09:35.333Z,66.72
2022-12-09T05:10:35.523Z,59.46
2022-12-09T05:11:35.391Z,59.85
2022-12-09T05:12:35.500Z,58.97
2022-12-09T05:13:35.351Z,57.39
2022-12-09T05:14:35.632Z,60.28
2022-12-09T05:15:35.650Z,58.44
2022-12-09T05:16:35.280Z,59.65
2022-12-09T05:17:35.262Z,60.84
2022-12-09T05:18:35.377Z,63.68
2022-12-09T05:19:35.571Z,61.51
2022-12-09T05:20:35.445Z,58.15
2022-12-09T05:21:35.247Z,58.41
2022-12-09T05:22:35.282Z,66.24
2022-12-09T05:23:35.178Z,57.84
2022-12-09T05:24:35.362Z,60.77
2022-12-09T05:25:35.148Z,57.13
2022-12-09T05:26:35.175Z,58.14
2022-12-09T05:27:35.492Z,62.08
2022-12-09T05:28:35.514Z,57.72
2022-12-09T05:29:35.181Z,57.91
2022-12-09T05:30:35.268Z,59.94
2022-12-09T05:31:35.544Z,59.44
2022-12-09T05:32:35.097Z,64.35
2022-12-09T05:33:35.242Z,63.66
2022-12-09T05:34:35.236Z,60.31
2022-12-09T05:35:42.573Z,60.63
2022-12-09T05:36:37.088Z,66.00
2022-12-09T05:37:35.101Z,59.61
2022-12-09T05:38:35.404Z,58.72
2022-12-09T05:39:35.106Z,69.34
2022-12-09T05:40:35.352Z,58.97
2022-12-09T05:41:35.394Z,59.74
2022-12-09T05:42:40.938Z,60.77
2022-12-09T05:43:36.219Z,67.71
2022-12-09T05:44:35.027Z,59.62
2022-12-09T05:45:35.072Z,59.20
2022-12-09T05:46:35.300Z,59.77
2022-12-09T05:47:35.358Z,59.30
2022-12-09T05:48:35.380Z,61.30
2022-12-09T05:49:35.473Z,59.41
2022-12-09T05:50:34.892Z,68.90
2022-12-09T05:51:35.145Z,63.49
2022-12-09T05:52:35.207Z,60.54
2022-12-09T05:53:35.294Z,62.74
2022-12-09T05:54:35.282Z,64.04
2022-12-09T05:55:35.096Z,60.17
2022-12-09T05:56:35.173Z,59.86
2022-12-09T05:57:35.127Z,60.96
2022-12-09T05:58:34.980Z,63.11
2022-12-09T05:59:34.938Z,60.96
2022-12-09T06:00:34.784Z,61.12
2022-12-09T06:01:35.324Z,60.77
2022-12-09T06:02:34.949Z,60.59
2022-12-09T06:03:35.133Z,67.13
2022-12-09T06:04:35.033Z,61.23
2022-12-09T06:05:35.263Z,61.68
2022-12-09T06:06:35.025Z,61.76
2022-12-09T06:07:35.016Z,63.17
2022-12-09T06:08:34.867Z,65.89
2022-12-09T06:09:34.797Z,65.71
2022-12-09T06:10:34.938Z,63.07
2022-12-09T06:11:34.891Z,61.75
2022-12-09T06:12:35.053Z,63.75
2022-12-09T06:13:34.735Z,63.18
2022-12-09T06:14:34.844Z,59.25
2022-12-09T06:15:35.107Z,59.59
2022-12-09T06:16:34.871Z,61.85
2022-12-09T06:17:35.018Z,60.16
2022-12-09T06:18:35.255Z,61.66
2022-12-09T06:19:35.074Z,61.24
2022-12-09T06:20:34.831Z,60.62
2022-12-09T06:21:34.750Z,62.28
2022-12-09T06:22:34.608Z,60.07
2022-12-09T06:23:34.881Z,62.00
2022-12-09T06:24:34.627Z,62.91
2022-12-09T06:25:34.947Z,60.53
2022-12-09T06:26:34.929Z,61.00
2022-12-09T06:27:34.529Z,62.79
2022-12-09T06:28:34.741Z,60.86
2022-12-09T06:29:34.829Z,61.22
2022-12-09T06:30:34.825Z,61.26
2022-12-09T06:31:34.976Z,60.24
2022-12-09T06:32:34.620Z,59.27
2022-12-09T06:33:54.261Z,61.16
2022-12-09T06:34:35.747Z,64.43
2022-12-09T06:35:36.074Z,65.61
2022-12-09T06:36:34.507Z,62.07
2022-12-09T06:37:34.437Z,64.20
2022-12-09T06:38:34.675Z,65.14
2022-12-09T06:39:34.803Z,59.85
2022-12-09T06:40:34.669Z,60.44
2022-12-09T06:41:34.592Z,61.92
2022-12-09T06:42:34.852Z,60.91
2022-12-09T06:43:34.612Z,67.22
2022-12-09T06:44:34.767Z,63.04
2022-12-09T06:45:34.404Z,68.02
2022-12-09T06:46:34.537Z,61.81
2022-12-09T06:47:34.605Z,60.93
2022-12-09T06:48:34.589Z,62.59
2022-12-09T06:49:34.532Z,61.20
2022-12-09T06:50:34.368Z,64.00
2022-12-09T06:51:34.495Z,62.37
2022-12-09T06:52:34.501Z,62.85
2022-12-09T06:53:34.301Z,65.33
2022-12-09T06:54:34.670Z,60.66
2022-12-09T06:55:34.366Z,68.14
2022-12-09T06:56:34.585Z,60.26
2022-12-09T06:57:34.556Z,65.82
2022-12-09T06:58:34.448Z,62.62
2022-12-09T06:59:34.602Z,63.17
2022-12-09T07:00:34.547Z,62.00
2022-12-09T07:01:34.427Z,65.46
2022-12-09T07:02:36.071Z,59.64
2022-12-09T07:03:35.643Z,63.46
2022-12-09T07:04:34.471Z,62.41
2022-12-09T07:05:34.439Z,59.05
2022-12-09T07:06:34.541Z,63.71
2022-12-09T07:07:34.500Z,64.80
2022-12-09T07:08:34.294Z,61.93
2022-12-09T07:09:34.197Z,66.43
2022-12-09T07:10:34.505Z,63.05
2022-12-09T07:11:34.372Z,60.52
2022-12-09T07:12:34.160Z,60.15
2022-12-09T07:13:34.425Z,62.02
2022-12-09T07:14:34.400Z,61.43
2022-12-09T07:15:34.172Z,59.95
2022-12-09T07:16:34.414Z,61.61
2022-12-09T07:17:35.404Z,61.09
2022-12-09T07:18:34.439Z,64.42
2022-12-09T07:19:34.537Z,60.68
2022-12-09T07:20:34.023Z,61.44
2022-12-09T07:21:34.503Z,60.84
2022-12-09T07:22:34.310Z,61.17
2022-12-09T07:23:34.167Z,61.96
2022-12-09T07:24:34.055Z,60.48
2022-12-09T07:25:34.318Z,59.88
2022-12-09T07:26:34.447Z,60.02
2022-12-09T07:27:33.967Z,67.15
2022-12-09T07:28:33.996Z,59.79
2022-12-09T07:29:34.223Z,59.82
2022-12-09T07:30:34.008Z,60.64
2022-12-09T07:31:34.470Z,63.51
2022-12-09T07:32:33.997Z,57.65
2022-12-09T07:33:34.369Z,61.03
2022-12-09T07:34:34.160Z,61.54
2022-12-09T07:35:34.044Z,60.57
2022-12-09T07:36:33.863Z,60.88
2022-12-09T07:37:34.238Z,60.59
2022-12-09T07:38:34.033Z,60.36
2022-12-09T07:39:34.149Z,60.97
2022-12-09T07:40:34.132Z,61.17
2022-12-09T07:41:33.853Z,61.53
2022-12-09T07:42:34.182Z,62.65
2022-12-09T07:43:34.180Z,59.79
2022-12-09T07:44:33.826Z,61.47
2022-12-09T07:45:34.220Z,61.02
2022-12-09T07:46:34.105Z,61.85
2022-12-09T07:47:34.199Z,61.03
2022-12-09T07:48:34.283Z,62.56
2022-12-09T07:49:34.183Z,60.18
2022-12-09T07:50:33.882Z,58.22
2022-12-09T07:51:34.178Z,63.29
2022-12-09T07:52:33.855Z,67.94
2022-12-09T07:53:33.921Z,59.17
2022-12-09T07:54:33.818Z,61.28
2022-12-09T07:55:34.015Z,60.58
2022-12-09T07:56:33.774Z,66.57
2022-12-09T07:57:34.107Z,60.97
2022-12-09T07:58:33.705Z,61.46
2022-12-09T07:59:33.699Z,69.15
2022-12-09T08:00:34.049Z,66.05
2022-12-09T08:01:33.822Z,60.72
2022-12-09T08:02:33.711Z,61.25
2022-12-09T08:03:34.147Z,62.00
2022-12-09T08:04:33.826Z,61.13
2022-12-09T08:05:33.855Z,64.90
2022-12-09T08:06:34.062Z,64.13
2022-12-09T08:07:37.327Z,60.33
2022-12-09T08:08:33.944Z,61.77
2022-12-09T08:09:33.931Z,67.94
2022-12-09T08:10:33.958Z,60.71
2022-12-09T08:11:34.088Z,61.17
2022-12-09T08:12:33.856Z,63.24
2022-12-09T08:13:33.603Z,59.37
2022-12-09T08:14:33.603Z,59.86
2022-12-09T08:15:33.505Z,59.73
2022-12-09T08:16:33.657Z,60.66
2022-12-09T08:17:33.666Z,61.50
2022-12-09T08:18:33.656Z,62.24
2022-12-09T08:19:33.910Z,61.43
2022-12-09T08:20:33.636Z,61.47
2022-12-09T08:21:33.572Z,62.41
2022-12-09T08:22:33.673Z,59.87
2022-12-09T08:23:33.615Z,60.79
2022-12-09T08:24:34.074Z,60.55
2022-12-09T08:25:33.871Z,60.20
2022-12-09T08:26:34.016Z,60.82
2022-12-09T08:27:33.722Z,61.30
2022-12-09T08:28:34.127Z,62.22
2022-12-09T08:29:33.663Z,60.86
2022-12-09T08:30:33.589Z,61.53
2022-12-09T08:31:38.752Z,66.60
2022-12-09T08:32:35.735Z,60.52
2022-12-09T08:33:33.545Z,60.03
2022-12-09T08:34:33.421Z,62.52
2022-12-09T08:35:33.777Z,63.90
2022-12-09T08:36:33.282Z,61.87
2022-12-09T08:37:33.348Z,60.25
2022-12-09T08:38:33.366Z,64.15
2022-12-09T08:39:33.698Z,60.96
2022-12-09T08:40:33.695Z,60.96
2022-12-09T08:41:33.369Z,61.68
2022-12-09T08:42:33.487Z,60.01
2022-12-09T08:43:33.272Z,61.11
2022-12-09T08:44:33.595Z,61.26
2022-12-09T08:45:33.257Z,62.53
2022-12-09T08:46:33.805Z,60.42
2022-12-09T08:47:33.766Z,59.91
2022-12-09T08:48:33.581Z,59.67
2022-12-09T08:49:33.366Z,67.65
2022-12-09T08:50:34.269Z,60.30
2022-12-09T08:51:33.272Z,61.14
2022-12-09T08:52:37.243Z,58.96
2022-12-09T08:53:34.350Z,63.90
2022-12-09T08:54:33.310Z,63.27
2022-12-09T08:55:33.377Z,59.56
2022-12-09T08:56:33.530Z,56.29
2022-12-09T08:57:34.518Z,56.54
2022-12-09T08:58:33.482Z,60.68
2022-12-09T08:59:33.479Z,67.95
2022-12-09T09:00:33.066Z,58.93
2022-12-09T09:01:34.445Z,61.32
2022-12-09T09:02:34.473Z,61.41
2022-12-09T09:03:33.325Z,61.61
2022-12-09T09:04:34.721Z,60.80
2022-12-09T09:05:33.209Z,63.37
2022-12-09T09:06:33.227Z,61.19
2022-12-09T09:08:04.970Z,61.40
2022-12-09T09:08:33.029Z,60.47
2022-12-09T09:09:33.277Z,61.87
2022-12-09T09:10:33.396Z,60.95
2022-12-09T09:11:33.374Z,60.50
2022-12-09T09:12:42.097Z,59.98
2022-12-09T09:13:35.351Z,57.52
2022-12-09T09:14:32.921Z,56.51
2022-12-09T09:15:32.994Z,59.24
2022-12-09T09:16:33.036Z,58.11
2022-12-09T09:17:33.261Z,58.33
2022-12-09T09:18:33.351Z,59.37
2022-12-09T09:19:33.405Z,59.49
2022-12-09T09:20:32.930Z,60.53
2022-12-09T09:21:33.108Z,60.17
2022-12-09T09:22:33.327Z,60.35
2022-12-09T09:23:33.309Z,60.52
2022-12-09T09:24:33.226Z,63.00
2022-12-09T09:25:33.226Z,58.62
2022-12-09T09:26:33.025Z,59.71
2022-12-09T09:27:33.505Z,67.51
2022-12-09T09:28:32.851Z,61.09
2022-12-09T09:29:33.009Z,59.66
2022-12-09T09:30:33.112Z,60.38
2022-12-09T09:31:32.887Z,66.32
2022-12-09T09:32:33.015Z,60.88
2022-12-09T09:33:33.229Z,59.46
2022-12-09T09:34:32.798Z,59.62
2022-12-09T09:35:32.992Z,60.59
2022-12-09T09:36:32.774Z,67.94
2022-12-09T09:37:33.030Z,60.36
2022-12-09T09:38:32.852Z,60.57
2022-12-09T09:39:32.872Z,59.43
2022-12-09T09:40:33.173Z,62.53
2022-12-09T09:41:32.694Z,61.06
2022-12-09T09:42:32.631Z,59.64
2022-12-09T09:43:32.844Z,63.46
2022-12-09T09:44:33.082Z,60.65
2022-12-09T09:45:32.660Z,60.11
2022-12-09T09:46:34.272Z,59.79
2022-12-09T09:47:37.763Z,59.87
2022-12-09T09:48:36.121Z,62.46
2022-12-09T09:49:34.660Z,60.42
2022-12-09T09:50:33.831Z,60.36
2022-12-09T09:51:34.376Z,60.57
2022-12-09T09:52:33.682Z,58.83
2022-12-09T09:53:32.871Z,62.47
2022-12-09T09:54:32.987Z,60.52
2022-12-09T09:55:32.554Z,61.30
2022-12-09T09:56:32.631Z,60.67
2022-12-09T09:57:32.684Z,60.53
2022-12-09T09:58:32.589Z,72.98
2022-12-09T09:59:32.631Z,61.36
2022-12-09T10:00:32.654Z,61.62
2022-12-09T10:01:32.804Z,61.30
2022-12-09T10:02:33.160Z,59.30
2022-12-09T10:03:32.723Z,60.87
2022-12-09T10:04:32.577Z,60.81
2022-12-09T10:05:32.996Z,61.54
2022-12-09T10:06:33.013Z,61.25
2022-12-09T10:07:32.736Z,60.96
2022-12-09T10:08:32.762Z,66.55
2022-12-09T10:09:32.607Z,63.05
2022-12-09T10:10:32.541Z,61.47
2022-12-09T10:11:33.063Z,67.97
2022-12-09T10:12:32.781Z,63.26
2022-12-09T10:13:33.016Z,60.88
2022-12-09T10:14:32.540Z,59.83
2022-12-09T10:15:32.641Z,62.14
2022-12-09T10:16:33.788Z,60.72
2022-12-09T10:17:32.513Z,60.53
2022-12-09T10:18:32.827Z,60.16
2022-12-09T10:19:32.805Z,60.93
2022-12-09T10:20:32.643Z,59.67
2022-12-09T10:21:32.695Z,59.94
2022-12-09T10:22:32.389Z,60.53
2022-12-09T10:23:32.371Z,60.74
2022-12-09T10:24:38.684Z,61.91
2022-12-09T10:25:34.661Z,61.49
2022-12-09T10:26:32.759Z,62.90
2022-12-09T10:27:32.358Z,60.19
2022-12-09T10:28:32.580Z,60.88
2022-12-09T10:29:32.292Z,59.11
2022-12-09T10:30:39.769Z,60.70
2022-12-09T10:31:34.449Z,59.27
2022-12-09T10:32:32.515Z,61.54
2022-12-09T10:33:32.440Z,60.77
2022-12-09T10:34:32.204Z,60.40
2022-12-09T10:35:32.565Z,59.38
2022-12-09T10:36:35.700Z,59.35
2022-12-09T10:37:33.192Z,60.58
2022-12-09T10:38:32.407Z,61.64
2022-12-09T10:39:32.325Z,63.55
2022-12-09T10:40:32.219Z,60.42
2022-12-09T10:41:32.204Z,63.46
2022-12-09T10:42:35.215Z,61.15
2022-12-09T10:43:33.170Z,61.61
2022-12-09T10:44:32.115Z,59.85
2022-12-09T10:45:52.561Z,59.57
2022-12-09T10:46:34.136Z,61.38
2022-12-09T10:47:32.416Z,61.93
2022-12-09T10:48:33.376Z,65.92
2022-12-09T10:49:33.108Z,61.25
2022-12-09T10:50:32.454Z,60.29
2022-12-09T10:51:32.076Z,61.57
2022-12-09T10:52:32.477Z,60.87
2022-12-09T10:53:31.943Z,66.25
2022-12-09T10:54:32.328Z,64.91
2022-12-09T10:55:32.156Z,60.81
2022-12-09T10:56:32.418Z,60.97
2022-12-09T10:57:32.075Z,61.60
2022-12-09T10:58:31.989Z,65.60
2022-12-09T10:59:32.163Z,60.32
2022-12-09T11:00:35.051Z,67.05
2022-12-09T11:01:33.054Z,59.43
2022-12-09T11:02:31.987Z,60.88
2022-12-09T11:03:32.410Z,63.43
2022-12-09T11:04:32.037Z,61.44
2022-12-09T11:05:32.043Z,61.18
2022-12-09T11:06:32.275Z,61.07
2022-12-09T11:07:32.196Z,67.54
2022-12-09T11:08:32.195Z,61.70
2022-12-09T11:09:32.255Z,59.37
2022-12-09T11:10:32.319Z,60.80
2022-12-09T11:11:32.257Z,60.71
2022-12-09T11:12:38.496Z,60.04
2022-12-09T11:13:33.021Z,60.58
2022-12-09T11:14:31.956Z,59.51
2022-12-09T11:15:32.415Z,59.33
2022-12-09T11:16:32.171Z,66.45
2022-12-09T11:17:31.915Z,62.60
2022-12-09T11:18:32.063Z,62.11
2022-12-09T11:19:31.840Z,67.33
2022-12-09T11:20:31.919Z,59.44
2022-12-09T11:21:31.880Z,62.47
2022-12-09T11:22:31.865Z,61.34
2022-12-09T11:23:31.855Z,67.93
2022-12-09T11:24:31.820Z,62.24
2022-12-09T11:25:31.817Z,64.74
2022-12-09T11:26:31.703Z,62.75
2022-12-09T11:27:31.892Z,61.93
2022-12-09T11:28:31.981Z,60.90
2022-12-09T11:29:31.909Z,63.17
2022-12-09T11:30:31.916Z,60.98
2022-12-09T11:31:33.393Z,62.25
2022-12-09T11:32:33.126Z,62.61
2022-12-09T11:33:31.737Z,69.10
2022-12-09T11:34:31.751Z,60.97
2022-12-09T11:35:32.148Z,62.08
2022-12-09T11:36:31.634Z,60.18
2022-12-09T11:37:31.503Z,61.60
2022-12-09T11:38:31.510Z,61.04
2022-12-09T11:39:31.505Z,68.71
2022-12-09T11:40:31.646Z,63.33
2022-12-09T11:41:31.455Z,61.17
2022-12-09T11:42:31.462Z,63.00
2022-12-09T11:43:31.441Z,65.17
2022-12-09T11:44:31.427Z,60.99
2022-12-09T11:45:31.423Z,60.73
2022-12-09T11:46:31.485Z,62.93
2022-12-09T11:47:40.055Z,61.01
2022-12-09T11:48:37.353Z,61.54
2022-12-09T11:49:33.384Z,64.22
2022-12-09T11:50:31.839Z,62.57
2022-12-09T11:51:31.365Z,62.26
2022-12-09T11:52:31.360Z,61.47
2022-12-09T11:53:31.330Z,60.78
2022-12-09T11:54:31.339Z,61.97
2022-12-09T11:55:31.336Z,62.00
2022-12-09T11:56:31.298Z,60.28
2022-12-09T11:57:31.306Z,60.49
2022-12-09T11:58:31.307Z,61.41
2022-12-09T11:59:36.332Z,66.15
2022-12-09T12:00:33.269Z,60.94
2022-12-09T12:01:31.272Z,61.79
2022-12-09T12:02:31.284Z,61.05
2022-12-09T12:03:31.334Z,63.18
2022-12-09T12:04:31.233Z,60.94
2022-12-09T12:05:31.216Z,60.46
2022-12-09T12:06:31.207Z,61.51
2022-12-09T12:07:31.189Z,68.23
2022-12-09T12:08:31.296Z,60.87
2022-12-09T12:09:31.220Z,60.28
2022-12-09T12:10:31.173Z,62.57
2022-12-09T12:11:31.160Z,61.08
2022-12-09T12:12:31.177Z,60.45
2022-12-09T12:13:31.134Z,61.80
2022-12-09T12:14:31.128Z,61.80
2022-12-09T12:15:31.121Z,63.04
2022-12-09T12:16:36.084Z,61.10
2022-12-09T12:17:32.192Z,63.45
2022-12-09T12:18:31.097Z,62.42
2022-12-09T12:19:31.088Z,61.28
2022-12-09T12:20:31.050Z,61.34
2022-12-09T12:21:31.056Z,60.98
2022-12-09T12:22:31.053Z,63.63
2022-12-09T12:23:31.047Z,61.74
2022-12-09T12:24:31.041Z,61.35
2022-12-09T12:25:31.037Z,67.40
2022-12-09T12:26:31.007Z,62.04
2022-12-09T12:27:30.993Z,60.49
2022-12-09T12:28:30.987Z,61.18
2022-12-09T12:29:30.982Z,61.81
2022-12-09T12:30:30.985Z,61.24
2022-12-09T12:31:31.008Z,63.43
2022-12-09T12:32:30.956Z,62.31
2022-12-09T12:34:38.700Z,60.58
2022-12-09T12:35:31.928Z,62.42
2022-12-09T12:36:30.904Z,63.43
2022-12-09T12:37:30.895Z,62.42
2022-12-09T12:38:30.920Z,60.87
2022-12-09T12:39:30.898Z,62.61
2022-12-09T12:40:30.894Z,62.96
2022-12-09T12:41:30.885Z,60.63
2022-12-09T12:42:30.867Z,59.16
2022-12-09T12:43:30.844Z,61.72
2022-12-09T12:44:30.828Z,62.43
2022-12-09T12:45:30.897Z,60.44
2022-12-09T12:46:30.922Z,66.67
2022-12-09T12:47:30.803Z,62.82
2022-12-09T12:48:30.841Z,62.54
2022-12-09T12:49:30.787Z,61.24
2022-12-09T12:50:30.767Z,63.33
2022-12-09T12:51:30.765Z,62.26
2022-12-09T12:53:31.741Z,61.00
2022-12-09T12:54:30.759Z,59.54